logo dgac
Martes 06 de Diciembre del 2022
Buscar por aerodromo o helipuerto
Ingrese nombre de aeródromo, localidad o designador OACI:
TAF: TAF SCVM 060400Z 0606/0706 16004KT CAVOK TX24/0619Z TN11/0610Z TEMPO 0608/0612 VRB02KT 5000 BR BKN008 BECMG 0614/0616 31010KT BECMG 0618/0620 28012KT BECMG 0701/0703 20006KT
TAF del 06/12/2022 a las 04:00 UTC
Para mayor información visite www.meteochile.cl
Período de validez: desde el 06 a las 06:00 UTC hasta el 07 a las 06:00 UTC
Viento: dirección 160 grados, velocidad 4 nudos
Visibilidad: 10 km o más,
    sin nubes bajo los 5.000 pies o bajo del MSA (Mínimo de Seguridad del Aeródromo),
    sin cumulonimbus, y sin fenómenos de tiempo significativo en el aeródromo o alrededores
Temperatura máxima: 24ºC el 06 a las 19:00 UTC
Temperatura mínima: 11ºC el 06 a las 10:00 UTC
Se espera en forma temporal entre las 08:00 UTC del 06 y las 12:00 UTC del 06:
Viento: dirección variable, velocidad 2 nudos
Visibilidad: 5000 metros
Neblina
Nubes: Nublado a 800 pies sobre el nivel del aeródromo
Se espera un cambio entre las 14:00 UTC del 06 y las 16:00 UTC del 06, :
Viento: dirección 310 grados, velocidad 10 nudos
Se espera un cambio entre las 18:00 UTC del 06 y las 20:00 UTC del 06, :
Viento: dirección 280 grados, velocidad 12 nudos
Se espera un cambio entre las 01:00 UTC del 07 y las 03:00 UTC del 07, :
Viento: dirección 200 grados, velocidad 6 nudos